HGLO2: Hugo Lake

Data processed at Wed May 22 2019 23:50


All information presented herein is the property of the government of the United States of America and may be revised or deleted at any time without prior notice.
Dissemination of this information without the expressed written consent of the Public Affairs Office, Tulsa District U.S. Army Corps of Engineers is strictly prohibited.
These data are gathered electronically and, as presented, have not undergone any form of quality control. These data are not guaranteed to be valid or correct.
Go to home page.
Go to station list.
Go to home page.

Upstream stations:

Downstream station:
Previous Day
Next Day
Current Day
    
SHEF ID:       HGLO2     Hugo Lake
STATION TYPE:  RESERVOIR
Flood Pool:  Bottom =   404.50, Top =   437.50

               PRECIP ELEVATION   STORAGE   TW-ELEV    INFLOW   RELEASE  AIR-TEMP  WIND-DIRWIND-SPEED REL-HUMID SOLAR-RAD   VOLTAGE  BAT-LOAD
                   in        ft     ac-ft        ft       cfs       cfs         F       deg       mph         %      W/m2      volt      volt
              Ccp-Rev   Ccp-Rev   Ccp-Rev   Ccp-Rev  Rev-Regi  Rev-Regi   Ccp-Rev   Ccp-Rev   Ccp-Rev   Ccp-Rev   Ccp-Rev   Ccp-Rev   Ccp-Rev
(US/Central)
05/22 00:00      0.00    412.88    275212      ----      7645      8990     62.24    159.80      7.70     92.87      0.00     13.56     13.21
05/22 01:00      0.00    412.88    275212      ----      7643      8990     61.14    148.10      6.30     93.82      0.00     13.56     13.21
05/22 02:00      0.00    412.87    275027      ----      8540      8987     59.85    147.30      5.90     96.99      0.00     13.56     13.21
05/22 03:00      0.00    412.87    275027      ----      7642      8987     59.85    148.60      4.90     99.69      0.00     13.56     13.21
05/22 04:00      0.00    412.87    275027      ----      7640      8987     59.54    150.30      4.40    100.01      0.00     13.56     13.21
05/22 05:00      0.00    412.85    274656      ----      7639      8983     59.29    146.20      4.90    100.01      0.00     13.55     13.21
05/22 06:00      0.00    412.85    274656      ----      7189      8983     60.67    146.30      5.70    100.01      0.00     13.55     13.21
05/22 07:00      0.00    412.84    274471      ----      6738      8981     61.65    138.70      3.50    100.01      0.00     13.55     13.21
05/22 08:00      0.00    412.83    274286      ----      7185      8979     63.41    147.30      5.00    100.01     18.00     13.55     13.21
05/22 09:00      0.00    412.82    274100      ----      6734      8976     66.27    150.70      6.20    100.01     74.30     13.55     13.21
05/22 10:00      0.00    412.81    273915      ----      6732      8974     69.64    147.20      8.00     99.80    212.60     13.55     13.21
05/22 11:00      0.00    412.80    273729      ----      6281      8972     73.80    153.70     10.50     95.71    344.40     13.55     13.21
05/22 12:00      0.00    412.79    273544      ----      5830      8970     77.25    157.70     10.30     91.23    378.60     13.56     13.21
05/22 13:00      0.00    412.77    273173      ----      5377      8966     81.36    166.10     10.90     83.94    392.90     13.56     13.21
05/22 14:00      0.00    412.75    272802      ----      4476      8961     84.78    177.60     13.30     73.86    799.10     13.56     13.21
05/22 15:00      0.00    412.73    272432      ----      4471      8957     85.84    175.50     15.00     69.99    619.60     13.56     13.21
05/22 16:00      0.00    412.70    271876      ----      5363      8950     86.25    170.70     16.00     68.55    633.00     13.56     13.21
05/22 17:00      0.00    412.69    271690      ----      6256      8948     86.59    170.00     16.30     64.95    590.90     13.57     13.21
05/22 18:00      0.00    412.69    271690      ----      7150      8948     86.29    173.40     16.20     63.38    439.30     13.57     13.21
05/22 19:00      0.00    412.69    271690      ----      8045      8948     85.55    168.40     13.60     64.75    252.40     13.57     13.21
05/22 20:00      0.00    412.69    271690      ----      7596      8948     83.91    168.90     10.30     67.20     78.20     13.57     13.21
05/22 21:00      0.00    412.68    271505      ----      5808      8946     80.69    162.60      7.20     75.51      0.00     13.57     13.21
05/22 22:00      0.00    412.66    271134      ----      4910      8942     78.89    161.20      6.90     80.82      0.00     13.57     13.21
05/22 23:00      0.00    412.62    270393      ----      2231      8933     77.95    158.80      8.90     81.53      0.00     13.57     13.21